sensor_id;sensor_type;location;lat;lon;timestamp;pressure;altitude;pressure_sealevel;temperature;humidity
9281;BME280;4679;47.966;7.958;2023-02-12T07:44:24;98975.06;;;-1.31;75.13
9281;BME280;4679;47.966;7.958;2023-02-12T07:46:27;98974.19;;;-1.21;74.93
9281;BME280;4679;47.966;7.958;2023-02-12T07:48:30;98973.22;;;-1.09;75.04
9281;BME280;4679;47.966;7.958;2023-02-12T07:50:32;98983.94;;;-1.02;74.82
9281;BME280;4679;47.966;7.958;2023-02-12T07:52:33;98968.41;;;-0.92;74.91
9281;BME280;4679;47.966;7.958;2023-02-12T07:54:35;98970.13;;;-0.82;74.68
9281;BME280;4679;47.966;7.958;2023-02-12T07:56:38;98967.25;;;-0.58;74.52
9281;BME280;4679;47.966;7.958;2023-02-12T07:58:42;98970.25;;;-0.42;74.14
9281;BME280;4679;47.966;7.958;2023-02-12T08:00:46;98972.22;;;-0.34;73.98
9281;BME280;4679;47.966;7.958;2023-02-12T08:02:51;98969.38;;;-0.31;73.87
9281;BME280;4679;47.966;7.958;2023-02-12T08:04:54;98972.66;;;-0.29;73.75
9281;BME280;4679;47.966;7.958;2023-02-12T08:06:56;98983.78;;;-0.27;73.80
9281;BME280;4679;47.966;7.958;2023-02-12T08:08:59;98972.97;;;-0.22;73.98
9281;BME280;4679;47.966;7.958;2023-02-12T08:11:01;98976.97;;;-0.18;74.14
9281;BME280;4679;47.966;7.958;2023-02-12T08:13:03;98977.84;;;-0.08;73.85
9281;BME280;4679;47.966;7.958;2023-02-12T08:15:05;98980.91;;;-0.03;73.64
9281;BME280;4679;47.966;7.958;2023-02-12T08:17:08;98978.06;;;0.10;73.50
9281;BME280;4679;47.966;7.958;2023-02-12T08:19:11;98980.03;;;0.27;73.16
9281;BME280;4679;47.966;7.958;2023-02-12T08:21:14;98978.16;;;0.39;73.06
9281;BME280;4679;47.966;7.958;2023-02-12T08:23:17;98978.22;;;0.58;72.88
9281;BME280;4679;47.966;7.958;2023-02-12T08:25:18;98983.44;;;0.67;72.95
9281;BME280;4679;47.966;7.958;2023-02-12T08:27:20;98979.03;;;0.78;72.25
9281;BME280;4679;47.966;7.958;2023-02-12T08:29:23;98985.13;;;0.88;72.42
9281;BME280;4679;47.966;7.958;2023-02-12T08:31:27;98969.88;;;1.02;71.99
9281;BME280;4679;47.966;7.958;2023-02-12T08:33:31;98973.31;;;1.13;72.04
9281;BME280;4679;47.966;7.958;2023-02-12T08:35:32;98981.53;;;1.27;71.64
9281;BME280;4679;47.966;7.958;2023-02-12T08:37:34;98970.25;;;1.46;72.02
9281;BME280;4679;47.966;7.958;2023-02-12T08:39:36;98974.63;;;1.55;71.64
9281;BME280;4679;47.966;7.958;2023-02-12T08:41:37;98979.03;;;1.64;71.64
9281;BME280;4679;47.966;7.958;2023-02-12T08:43:43;98985.56;;;1.88;70.75
9281;BME280;4679;47.966;7.958;2023-02-12T08:45:45;98986.94;;;1.92;70.59
9281;BME280;4679;47.966;7.958;2023-02-12T08:47:47;98976.56;;;2.09;70.39
9281;BME280;4679;47.966;7.958;2023-02-12T08:49:49;98974.97;;;2.26;69.92
9281;BME280;4679;47.966;7.958;2023-02-12T08:51:54;98976.84;;;2.34;69.92
9281;BME280;4679;47.966;7.958;2023-02-12T08:53:57;98979.72;;;2.40;70.25
9281;BME280;4679;47.966;7.958;2023-02-12T08:55:59;98968.34;;;2.50;69.50
9281;BME280;4679;47.966;7.958;2023-02-12T08:58:00;98982.38;;;2.58;69.43
9281;BME280;4679;47.966;7.958;2023-02-12T09:00:03;98969.78;;;2.62;69.89
9281;BME280;4679;47.966;7.958;2023-02-12T09:02:05;98965.78;;;2.67;69.68
9281;BME280;4679;47.966;7.958;2023-02-12T09:04:12;98962.25;;;2.76;69.60
9281;BME280;4679;47.966;7.958;2023-02-12T09:06:18;98967.44;;;2.86;69.57
9281;BME280;4679;47.966;7.958;2023-02-12T09:08:20;98965.28;;;2.99;69.76
9281;BME280;4679;47.966;7.958;2023-02-12T09:10:22;98959.94;;;3.09;69.22
9281;BME280;4679;47.966;7.958;2023-02-12T09:12:24;98963.81;;;3.23;69.08
9281;BME280;4679;47.966;7.958;2023-02-12T09:14:25;98965.25;;;3.35;68.77
9281;BME280;4679;47.966;7.958;2023-02-12T09:16:29;98958.94;;;3.45;68.80
9281;BME280;4679;47.966;7.958;2023-02-12T09:18:31;98951.09;;;3.53;68.41
9281;BME280;4679;47.966;7.958;2023-02-12T09:20:36;98952.84;;;3.63;67.98
9281;BME280;4679;47.966;7.958;2023-02-12T09:22:40;98956.63;;;3.68;68.18
9281;BME280;4679;47.966;7.958;2023-02-12T09:24:41;98951.75;;;3.73;68.21
9281;BME280;4679;47.966;7.958;2023-02-12T09:26:43;98953.78;;;3.87;68.00
9281;BME280;4679;47.966;7.958;2023-02-12T09:28:45;98950.06;;;3.98;67.70
9281;BME280;4679;47.966;7.958;2023-02-12T09:30:47;98940.28;;;4.08;67.57
9281;BME280;4679;47.966;7.958;2023-02-12T09:32:49;98944.91;;;4.14;67.62
9281;BME280;4679;47.966;7.958;2023-02-12T09:34:51;98940.06;;;4.28;67.32
9281;BME280;4679;47.966;7.958;2023-02-12T09:36:53;98938.63;;;4.49;67.10
9281;BME280;4679;47.966;7.958;2023-02-12T09:38:56;98947.38;;;4.58;66.95
9281;BME280;4679;47.966;7.958;2023-02-12T09:41:21;98942.63;;;4.70;67.16
9281;BME280;4679;47.966;7.958;2023-02-12T09:43:32;98938.88;;;4.80;66.76
9281;BME280;4679;47.966;7.958;2023-02-12T09:45:41;98932.47;;;4.91;66.85
9281;BME280;4679;47.966;7.958;2023-02-12T09:47:52;98943.00;;;5.07;66.50
9281;BME280;4679;47.966;7.958;2023-02-12T09:50:04;98935.28;;;5.22;66.22
9281;BME280;4679;47.966;7.958;2023-02-12T09:52:13;98936.09;;;5.39;65.28
9281;BME280;4679;47.966;7.958;2023-02-12T09:54:19;98941.19;;;5.56;66.23
9281;BME280;4679;47.966;7.958;2023-02-12T09:56:23;98935.44;;;5.61;65.25
9281;BME280;4679;47.966;7.958;2023-02-12T09:58:31;98941.16;;;5.73;66.10
9281;BME280;4679;47.966;7.958;2023-02-12T10:00:34;98929.59;;;5.82;65.87
9281;BME280;4679;47.966;7.958;2023-02-12T10:02:37;98933.56;;;5.86;65.94
9281;BME280;4679;47.966;7.958;2023-02-12T10:04:40;98928.94;;;5.96;65.31
9281;BME280;4679;47.966;7.958;2023-02-12T10:06:46;98927.31;;;5.95;64.92
9281;BME280;4679;47.966;7.958;2023-02-12T10:09:21;98918.06;;;6.07;65.56
9281;BME280;4679;47.966;7.958;2023-02-12T10:11:42;98925.75;;;6.17;65.28
9281;BME280;4679;47.966;7.958;2023-02-12T10:13:52;98918.66;;;6.25;65.39
9281;BME280;4679;47.966;7.958;2023-02-12T10:16:01;98915.97;;;6.33;64.23
9281;BME280;4679;47.966;7.958;2023-02-12T10:18:15;98919.03;;;6.45;65.29
9281;BME280;4679;47.966;7.958;2023-02-12T10:20:36;98920.50;;;6.48;64.30
9281;BME280;4679;47.966;7.958;2023-02-12T10:22:45;98914.72;;;6.52;64.50
9281;BME280;4679;47.966;7.958;2023-02-12T10:25:02;98928.34;;;6.64;64.66
9281;BME280;4679;47.966;7.958;2023-02-12T10:27:12;98922.13;;;6.57;65.11
9281;BME280;4679;47.966;7.958;2023-02-12T10:29:17;98926.56;;;6.56;65.03
9281;BME280;4679;47.966;7.958;2023-02-12T10:31:24;98923.22;;;6.62;64.89
9281;BME280;4679;47.966;7.958;2023-02-12T10:33:31;98930.81;;;6.65;64.97
9281;BME280;4679;47.966;7.958;2023-02-12T10:35:34;98926.66;;;6.71;64.45
9281;BME280;4679;47.966;7.958;2023-02-12T10:37:39;98922.97;;;6.80;64.79
9281;BME280;4679;47.966;7.958;2023-02-12T10:39:48;98920.47;;;6.87;64.51
9281;BME280;4679;47.966;7.958;2023-02-12T10:41:57;98919.91;;;6.91;64.10
9281;BME280;4679;47.966;7.958;2023-02-12T10:44:01;98922.72;;;7.13;63.54
9281;BME280;4679;47.966;7.958;2023-02-12T10:46:03;98922.97;;;7.26;63.93
9281;BME280;4679;47.966;7.958;2023-02-12T10:48:08;98912.59;;;7.39;63.38
9281;BME280;4679;47.966;7.958;2023-02-12T10:50:17;98915.91;;;7.41;63.54
9281;BME280;4679;47.966;7.958;2023-02-12T10:52:29;98916.78;;;7.33;63.63
9281;BME280;4679;47.966;7.958;2023-02-12T10:54:40;98910.44;;;7.43;63.10
9281;BME280;4679;47.966;7.958;2023-02-12T10:56:42;98906.28;;;7.48;63.54
9281;BME280;4679;47.966;7.958;2023-02-12T10:58:53;98912.97;;;7.36;63.59
9281;BME280;4679;47.966;7.958;2023-02-12T11:00:57;98914.38;;;7.24;63.29
9281;BME280;4679;47.966;7.958;2023-02-12T11:03:05;98912.59;;;7.39;63.90
9281;BME280;4679;47.966;7.958;2023-02-12T11:05:22;98900.13;;;7.33;62.98
9281;BME280;4679;47.966;7.958;2023-02-12T11:07:26;98899.75;;;7.36;63.06
9281;BME280;4679;47.966;7.958;2023-02-12T11:09:30;98901.50;;;7.44;62.91
9281;BME280;4679;47.966;7.958;2023-02-12T11:11:37;98902.81;;;7.48;63.00
9281;BME280;4679;47.966;7.958;2023-02-12T11:13:41;98902.72;;;7.70;62.32
9281;BME280;4679;47.966;7.958;2023-02-12T11:15:47;98897.97;;;7.66;62.78
9281;BME280;4679;47.966;7.958;2023-02-12T11:17:55;98904.25;;;7.65;63.05
9281;BME280;4679;47.966;7.958;2023-02-12T11:20:06;98901.84;;;7.78;62.94
9281;BME280;4679;47.966;7.958;2023-02-12T11:23:32;98896.16;;;7.81;62.65
9281;BME280;4679;47.966;7.958;2023-02-12T11:25:35;98891.63;;;8.04;62.16
9281;BME280;4679;47.966;7.958;2023-02-12T11:27:37;98891.44;;;8.21;62.18
9281;BME280;4679;47.966;7.958;2023-02-12T11:29:39;98877.47;;;8.12;61.90
9281;BME280;4679;47.966;7.958;2023-02-12T11:31:41;98874.91;;;8.19;61.82
9281;BME280;4679;47.966;7.958;2023-02-12T11:33:43;98880.38;;;8.17;61.26
9281;BME280;4679;47.966;7.958;2023-02-12T11:35:50;98877.25;;;8.28;62.09
9281;BME280;4679;47.966;7.958;2023-02-12T11:37:54;98877.25;;;8.43;61.68
9281;BME280;4679;47.966;7.958;2023-02-12T11:39:58;98872.97;;;8.42;61.35
9281;BME280;4679;47.966;7.958;2023-02-12T11:42:01;98871.72;;;8.38;61.55
9281;BME280;4679;47.966;7.958;2023-02-12T11:44:09;98869.38;;;8.64;61.52
9281;BME280;4679;47.966;7.958;2023-02-12T11:46:18;98874.97;;;8.55;61.56
9281;BME280;4679;47.966;7.958;2023-02-12T11:48:24;98872.50;;;8.53;61.49
9281;BME280;4679;47.966;7.958;2023-02-12T11:50:29;98872.44;;;8.46;61.19
9281;BME280;4679;47.966;7.958;2023-02-12T11:52:34;98864.31;;;8.48;61.41
9281;BME280;4679;47.966;7.958;2023-02-12T11:54:39;98856.81;;;8.73;60.92
9281;BME280;4679;47.966;7.958;2023-02-12T11:56:44;98854.56;;;8.70;60.64
9281;BME280;4679;47.966;7.958;2023-02-12T11:58:47;98855.94;;;8.66;60.64
9281;BME280;4679;47.966;7.958;2023-02-12T12:00:53;98853.88;;;8.82;60.72
9281;BME280;4679;47.966;7.958;2023-02-12T12:03:06;98852.63;;;8.78;60.84
9281;BME280;4679;47.966;7.958;2023-02-12T12:05:14;98847.06;;;8.73;60.38
9281;BME280;4679;47.966;7.958;2023-02-12T12:07:20;98849.56;;;8.60;60.79
9281;BME280;4679;47.966;7.958;2023-02-12T12:09:27;98846.38;;;8.65;60.88
9281;BME280;4679;47.966;7.958;2023-02-12T12:11:37;98851.19;;;9.04;60.11
9281;BME280;4679;47.966;7.958;2023-02-12T12:13:46;98850.38;;;9.03;60.14
9281;BME280;4679;47.966;7.958;2023-02-12T12:15:55;98846.34;;;9.07;60.73
9281;BME280;4679;47.966;7.958;2023-02-12T12:18:25;98846.97;;;9.09;60.34
9281;BME280;4679;47.966;7.958;2023-02-12T12:20:51;98846.31;;;9.29;59.54
9281;BME280;4679;47.966;7.958;2023-02-12T12:22:59;98841.97;;;9.49;59.65
9281;BME280;4679;47.966;7.958;2023-02-12T12:25:11;98841.13;;;9.42;59.27
9281;BME280;4679;47.966;7.958;2023-02-12T12:27:19;98834.72;;;9.30;59.51
9281;BME280;4679;47.966;7.958;2023-02-12T12:29:51;98830.78;;;9.47;60.14
9281;BME280;4679;47.966;7.958;2023-02-12T12:31:58;98819.44;;;9.66;59.09
9281;BME280;4679;47.966;7.958;2023-02-12T12:34:06;98830.06;;;9.66;58.95
9281;BME280;4679;47.966;7.958;2023-02-12T12:38:57;98832.44;;;9.55;59.22
9281;BME280;4679;47.966;7.958;2023-02-12T12:41:08;98824.78;;;9.38;59.67
9281;BME280;4679;47.966;7.958;2023-02-12T12:43:19;98830.09;;;9.38;59.46
9281;BME280;4679;47.966;7.958;2023-02-12T12:45:39;98825.84;;;9.44;59.29
9281;BME280;4679;47.966;7.958;2023-02-12T12:47:59;98828.19;;;9.32;59.41
9281;BME280;4679;47.966;7.958;2023-02-12T12:50:23;98828.34;;;9.52;59.31
9281;BME280;4679;47.966;7.958;2023-02-12T12:55:19;98823.13;;;9.65;58.56
9281;BME280;4679;47.966;7.958;2023-02-12T12:57:34;98825.94;;;9.57;58.94
9281;BME280;4679;47.966;7.958;2023-02-12T13:00:02;98822.97;;;9.73;59.04
9281;BME280;4679;47.966;7.958;2023-02-12T13:05:07;98819.38;;;9.94;57.72
9281;BME280;4679;47.966;7.958;2023-02-12T13:07:30;98817.78;;;10.00;57.83
9281;BME280;4679;47.966;7.958;2023-02-12T13:09:43;98820.16;;;10.23;57.64
9281;BME280;4679;47.966;7.958;2023-02-12T13:11:56;98818.59;;;10.48;57.72
9281;BME280;4679;47.966;7.958;2023-02-12T13:14:13;98823.31;;;10.52;56.81
9281;BME280;4679;47.966;7.958;2023-02-12T13:16:20;98814.50;;;10.45;57.99
9281;BME280;4679;47.966;7.958;2023-02-12T13:18:35;98816.97;;;10.53;57.44
9281;BME280;4679;47.966;7.958;2023-02-12T13:20:47;98814.34;;;10.67;57.16
9281;BME280;4679;47.966;7.958;2023-02-12T13:22:55;98817.34;;;10.44;57.55
9281;BME280;4679;47.966;7.958;2023-02-12T13:25:02;98818.13;;;10.31;58.38
9281;BME280;4679;47.966;7.958;2023-02-12T13:27:11;98818.41;;;10.63;57.03
9281;BME280;4679;47.966;7.958;2023-02-12T13:29:18;98804.34;;;10.75;57.57
9281;BME280;4679;47.966;7.958;2023-02-12T13:31:22;98802.06;;;10.59;58.07
9281;BME280;4679;47.966;7.958;2023-02-12T13:33:35;98809.78;;;10.41;57.87
9281;BME280;4679;47.966;7.958;2023-02-12T13:35:44;98804.28;;;10.42;58.05
9281;BME280;4679;47.966;7.958;2023-02-12T13:37:48;98807.34;;;10.46;57.51
9281;BME280;4679;47.966;7.958;2023-02-12T13:39:51;98800.63;;;10.50;58.00
9281;BME280;4679;47.966;7.958;2023-02-12T13:42:02;98800.25;;;10.73;57.69
9281;BME280;4679;47.966;7.958;2023-02-12T13:44:13;98795.78;;;10.80;57.49
9281;BME280;4679;47.966;7.958;2023-02-12T13:46:24;98795.53;;;10.55;57.13
9281;BME280;4679;47.966;7.958;2023-02-12T13:48:40;98799.56;;;10.31;57.60
9281;BME280;4679;47.966;7.958;2023-02-12T13:50:46;98793.88;;;10.34;58.03
9281;BME280;4679;47.966;7.958;2023-02-12T13:52:57;98798.88;;;10.16;57.86
9281;BME280;4679;47.966;7.958;2023-02-12T13:55:12;98796.84;;;10.18;59.08
9281;BME280;4679;47.966;7.958;2023-02-12T13:57:17;98788.53;;;10.28;58.18
9281;BME280;4679;47.966;7.958;2023-02-12T13:59:41;98786.34;;;10.71;57.47
9281;BME280;4679;47.966;7.958;2023-02-12T14:01:44;98785.94;;;10.74;57.00
9281;BME280;4679;47.966;7.958;2023-02-12T14:03:50;98780.03;;;10.78;58.09
9281;BME280;4679;47.966;7.958;2023-02-12T14:06:07;98783.50;;;10.92;58.18
9281;BME280;4679;47.966;7.958;2023-02-12T14:08:28;98782.28;;;11.01;57.18
9281;BME280;4679;47.966;7.958;2023-02-12T14:10:36;98784.94;;;10.75;57.90
9281;BME280;4679;47.966;7.958;2023-02-12T14:12:38;98779.81;;;10.60;57.98
9281;BME280;4679;47.966;7.958;2023-02-12T14:14:43;98780.47;;;10.69;58.11
9281;BME280;4679;47.966;7.958;2023-02-12T14:16:46;98774.31;;;10.88;57.93
9281;BME280;4679;47.966;7.958;2023-02-12T14:18:49;98782.28;;;10.95;58.25
9281;BME280;4679;47.966;7.958;2023-02-12T14:23:41;98777.16;;;10.86;57.46
9281;BME280;4679;47.966;7.958;2023-02-12T14:25:44;98773.91;;;11.04;57.58
9281;BME280;4679;47.966;7.958;2023-02-12T14:27:47;98777.16;;;10.86;57.14
9281;BME280;4679;47.966;7.958;2023-02-12T14:32:55;98779.41;;;10.70;57.73
9281;BME280;4679;47.966;7.958;2023-02-12T14:35:33;98777.56;;;10.57;58.35
9281;BME280;4679;47.966;7.958;2023-02-12T14:37:35;98773.28;;;10.89;57.62
9281;BME280;4679;47.966;7.958;2023-02-12T14:39:37;98774.50;;;11.19;57.83
9281;BME280;4679;47.966;7.958;2023-02-12T14:41:39;98770.44;;;11.10;57.66
9281;BME280;4679;47.966;7.958;2023-02-12T14:43:43;98765.94;;;10.71;57.91
9281;BME280;4679;47.966;7.958;2023-02-12T14:48:51;98773.28;;;10.56;58.37
9281;BME280;4679;47.966;7.958;2023-02-12T14:50:56;98766.56;;;10.53;58.02
9281;BME280;4679;47.966;7.958;2023-02-12T14:53:03;98770.84;;;10.68;58.54
9281;BME280;4679;47.966;7.958;2023-02-12T14:55:18;98766.75;;;10.72;58.79
9281;BME280;4679;47.966;7.958;2023-02-12T14:57:24;98772.88;;;10.66;57.94
9281;BME280;4679;47.966;7.958;2023-02-12T14:59:27;98773.06;;;10.71;58.19
9281;BME280;4679;47.966;7.958;2023-02-12T15:01:33;98768.81;;;10.89;58.46
9281;BME280;4679;47.966;7.958;2023-02-12T15:03:40;98769.63;;;10.77;57.66
9281;BME280;4679;47.966;7.958;2023-02-12T15:05:49;98783.50;;;10.79;58.01
9281;BME280;4679;47.966;7.958;2023-02-12T15:07:56;98784.31;;;10.73;58.39
9281;BME280;4679;47.966;7.958;2023-02-12T15:10:01;98780.25;;;10.83;58.53
9281;BME280;4679;47.966;7.958;2023-02-12T15:12:14;98779.44;;;10.76;58.55
9281;BME280;4679;47.966;7.958;2023-02-12T15:14:19;98770.84;;;10.61;58.90
9281;BME280;4679;47.966;7.958;2023-02-12T15:16:34;98781.44;;;10.54;58.33
9281;BME280;4679;47.966;7.958;2023-02-12T15:18:44;98775.75;;;10.64;58.24
9281;BME280;4679;47.966;7.958;2023-02-12T15:20:51;98778.38;;;10.57;58.46
9281;BME280;4679;47.966;7.958;2023-02-12T15:22:56;98775.91;;;10.56;59.06
9281;BME280;4679;47.966;7.958;2023-02-12T15:25:13;98784.91;;;10.55;58.17
9281;BME280;4679;47.966;7.958;2023-02-12T15:27:15;98786.97;;;10.60;59.09
9281;BME280;4679;47.966;7.958;2023-02-12T15:29:20;98782.47;;;10.60;58.87
9281;BME280;4679;47.966;7.958;2023-02-12T15:31:26;98787.38;;;10.76;58.20
9281;BME280;4679;47.966;7.958;2023-02-12T15:33:31;98789.84;;;10.78;57.78
9281;BME280;4679;47.966;7.958;2023-02-12T15:35:35;98798.59;;;10.58;59.08
9281;BME280;4679;47.966;7.958;2023-02-12T15:37:38;98793.47;;;10.37;58.86
9281;BME280;4679;47.966;7.958;2023-02-12T15:39:43;98794.44;;;10.30;59.47
9281;BME280;4679;47.966;7.958;2023-02-12T15:41:45;98801.19;;;10.32;59.83
9281;BME280;4679;47.966;7.958;2023-02-12T15:43:47;98800.97;;;10.20;59.19
9281;BME280;4679;47.966;7.958;2023-02-12T15:45:51;98801.78;;;10.28;60.21
9281;BME280;4679;47.966;7.958;2023-02-12T15:48:00;98802.22;;;10.31;59.53
9281;BME280;4679;47.966;7.958;2023-02-12T15:50:03;98792.81;;;10.22;59.30
9281;BME280;4679;47.966;7.958;2023-02-12T15:52:09;98798.25;;;10.14;60.27
9281;BME280;4679;47.966;7.958;2023-02-12T15:54:14;98797.44;;;10.07;60.73
9281;BME280;4679;47.966;7.958;2023-02-12T15:56:22;98805.97;;;10.02;60.24
9281;BME280;4679;47.966;7.958;2023-02-12T15:58:26;98799.63;;;9.97;60.63
9281;BME280;4679;47.966;7.958;2023-02-12T16:00:34;98791.38;;;9.78;61.11
9281;BME280;4679;47.966;7.958;2023-02-12T16:02:39;98801.13;;;9.71;60.49
9281;BME280;4679;47.966;7.958;2023-02-12T16:04:42;98802.09;;;9.64;61.23
9281;BME280;4679;47.966;7.958;2023-02-12T16:06:44;98800.81;;;9.46;60.94
9281;BME280;4679;47.966;7.958;2023-02-12T16:08:48;98803.56;;;9.32;61.63
9281;BME280;4679;47.966;7.958;2023-02-12T16:10:52;98806.44;;;9.09;62.04
9281;BME280;4679;47.966;7.958;2023-02-12T16:12:56;98810.75;;;8.89;61.63
9281;BME280;4679;47.966;7.958;2023-02-12T16:14:58;98814.09;;;8.76;62.38
9281;BME280;4679;47.966;7.958;2023-02-12T16:17:00;98804.59;;;8.60;62.53
9281;BME280;4679;47.966;7.958;2023-02-12T16:19:04;98800.00;;;8.48;62.79
9281;BME280;4679;47.966;7.958;2023-02-12T16:21:11;98802.34;;;8.21;62.93
9281;BME280;4679;47.966;7.958;2023-02-12T16:23:13;98811.59;;;7.96;63.54
9281;BME280;4679;47.966;7.958;2023-02-12T16:25:17;98811.06;;;7.86;63.48
9281;BME280;4679;47.966;7.958;2023-02-12T16:27:21;98802.78;;;7.74;63.52
9281;BME280;4679;47.966;7.958;2023-02-12T16:29:24;98807.63;;;7.56;63.72
9281;BME280;4679;47.966;7.958;2023-02-12T16:31:26;98814.72;;;7.40;63.86
9281;BME280;4679;47.966;7.958;2023-02-12T16:33:33;98816.88;;;7.22;64.09
9281;BME280;4679;47.966;7.958;2023-02-12T16:35:35;98809.41;;;7.11;64.58
9281;BME280;4679;47.966;7.958;2023-02-12T16:37:43;98815.00;;;6.93;65.05
9281;BME280;4679;47.966;7.958;2023-02-12T16:40:18;98813.34;;;6.78;65.56
9281;BME280;4679;47.966;7.958;2023-02-12T16:42:23;98808.13;;;6.69;65.06
9281;BME280;4679;47.966;7.958;2023-02-12T16:44:32;98809.06;;;6.54;64.70
9281;BME280;4679;47.966;7.958;2023-02-12T16:46:44;98811.22;;;6.50;65.85
9281;BME280;4679;47.966;7.958;2023-02-12T16:48:48;98822.13;;;6.47;64.94
9281;BME280;4679;47.966;7.958;2023-02-12T16:50:53;98815.16;;;6.31;65.50
9281;BME280;4679;47.966;7.958;2023-02-12T16:52:59;98807.31;;;6.23;65.39
9281;BME280;4679;47.966;7.958;2023-02-12T16:55:01;98827.41;;;6.16;65.82
9281;BME280;4679;47.966;7.958;2023-02-12T16:57:03;98821.06;;;6.11;66.61
9281;BME280;4679;47.966;7.958;2023-02-12T16:59:04;98822.03;;;6.10;65.88
9281;BME280;4679;47.966;7.958;2023-02-12T17:01:08;98826.03;;;5.97;65.68
9281;BME280;4679;47.966;7.958;2023-02-12T17:03:11;98821.13;;;5.94;66.19
9281;BME280;4679;47.966;7.958;2023-02-12T17:05:14;98825.06;;;5.82;66.18
9281;BME280;4679;47.966;7.958;2023-02-12T17:07:19;98820.84;;;5.73;66.00
9281;BME280;4679;47.966;7.958;2023-02-12T17:09:21;98822.16;;;5.69;67.14
9281;BME280;4679;47.966;7.958;2023-02-12T17:11:24;98817.72;;;5.70;67.06
9281;BME280;4679;47.966;7.958;2023-02-12T17:13:26;98816.63;;;5.64;66.95
9281;BME280;4679;47.966;7.958;2023-02-12T17:15:31;98822.72;;;5.56;66.59
9281;BME280;4679;47.966;7.958;2023-02-12T17:17:35;98828.50;;;5.44;66.74
9281;BME280;4679;47.966;7.958;2023-02-12T17:19:37;98824.09;;;5.28;67.16
9281;BME280;4679;47.966;7.958;2023-02-12T17:21:41;98831.38;;;5.18;67.94
9281;BME280;4679;47.966;7.958;2023-02-12T17:23:43;98830.06;;;5.14;68.17
9281;BME280;4679;47.966;7.958;2023-02-12T17:25:45;98827.75;;;5.11;67.98
9281;BME280;4679;47.966;7.958;2023-02-12T17:27:46;98828.91;;;5.00;67.94
9281;BME280;4679;47.966;7.958;2023-02-12T17:29:48;98825.78;;;4.97;68.38
9281;BME280;4679;47.966;7.958;2023-02-12T17:31:50;98834.69;;;4.87;67.86
9281;BME280;4679;47.966;7.958;2023-02-12T17:33:55;98823.16;;;4.80;68.21
9281;BME280;4679;47.966;7.958;2023-02-12T17:35:57;98820.84;;;4.77;68.32
9281;BME280;4679;47.966;7.958;2023-02-12T17:37:59;98825.47;;;4.67;68.76
9281;BME280;4679;47.966;7.958;2023-02-12T17:40:00;98820.19;;;4.59;68.62
9281;BME280;4679;47.966;7.958;2023-02-12T17:42:02;98828.25;;;4.49;69.26
9281;BME280;4679;47.966;7.958;2023-02-12T17:44:06;98828.38;;;4.32;68.99
9281;BME280;4679;47.966;7.958;2023-02-12T17:46:08;98826.88;;;4.21;69.36
9281;BME280;4679;47.966;7.958;2023-02-12T17:48:13;98824.41;;;4.19;69.52
9281;BME280;4679;47.966;7.958;2023-02-12T17:50:17;98825.72;;;4.15;69.39
9281;BME280;4679;47.966;7.958;2023-02-12T17:52:19;98837.34;;;4.05;69.54
9281;BME280;4679;47.966;7.958;2023-02-12T17:54:20;98829.47;;;4.05;69.52
9281;BME280;4679;47.966;7.958;2023-02-12T17:56:22;98832.38;;;3.94;69.56
9281;BME280;4679;47.966;7.958;2023-02-12T17:58:25;98845.31;;;3.87;70.04
9281;BME280;4679;47.966;7.958;2023-02-12T18:00:27;98835.47;;;3.89;70.11
9281;BME280;4679;47.966;7.958;2023-02-12T18:02:29;98835.16;;;3.92;70.00
9281;BME280;4679;47.966;7.958;2023-02-12T18:04:31;98829.56;;;3.79;70.10
9281;BME280;4679;47.966;7.958;2023-02-12T18:06:36;98829.16;;;3.66;70.46
9281;BME280;4679;47.966;7.958;2023-02-12T18:08:38;98824.16;;;3.54;70.59
9281;BME280;4679;47.966;7.958;2023-02-12T18:10:40;98831.03;;;3.47;70.57
9281;BME280;4679;47.966;7.958;2023-02-12T18:12:42;98830.22;;;3.47;70.81
9281;BME280;4679;47.966;7.958;2023-02-12T18:14:44;98828.25;;;3.49;71.16
9281;BME280;4679;47.966;7.958;2023-02-12T18:16:46;98830.25;;;3.55;71.05
9281;BME280;4679;47.966;7.958;2023-02-12T18:18:47;98835.97;;;3.50;70.78
9281;BME280;4679;47.966;7.958;2023-02-12T18:20:49;98830.16;;;3.39;71.14
9281;BME280;4679;47.966;7.958;2023-02-12T18:22:52;98830.94;;;3.31;71.01
9281;BME280;4679;47.966;7.958;2023-02-12T18:24:54;98840.41;;;3.24;71.69
9281;BME280;4679;47.966;7.958;2023-02-12T18:26:56;98837.28;;;3.21;71.47
9281;BME280;4679;47.966;7.958;2023-02-12T18:28:58;98834.44;;;3.14;71.85
9281;BME280;4679;47.966;7.958;2023-02-12T18:31:00;98834.75;;;3.11;72.26
9281;BME280;4679;47.966;7.958;2023-02-12T18:33:02;98836.41;;;3.12;71.90
9281;BME280;4679;47.966;7.958;2023-02-12T18:35:05;98835.25;;;3.14;71.69
9281;BME280;4679;47.966;7.958;2023-02-12T18:37:08;98841.25;;;3.07;71.84
9281;BME280;4679;47.966;7.958;2023-02-12T18:39:11;98825.63;;;2.97;71.87
9281;BME280;4679;47.966;7.958;2023-02-12T18:41:14;98834.09;;;2.91;72.26
9281;BME280;4679;47.966;7.958;2023-02-12T18:43:16;98830.31;;;2.86;72.53
9281;BME280;4679;47.966;7.958;2023-02-12T18:45:18;98830.22;;;2.77;72.67
9281;BME280;4679;47.966;7.958;2023-02-12T18:47:21;98829.06;;;2.72;72.86
9281;BME280;4679;47.966;7.958;2023-02-12T18:49:22;98826.28;;;2.73;72.70
9281;BME280;4679;47.966;7.958;2023-02-12T18:51:25;98822.03;;;2.72;72.46
9281;BME280;4679;47.966;7.958;2023-02-12T18:53:28;98830.72;;;2.73;73.21
9281;BME280;4679;47.966;7.958;2023-02-12T18:55:31;98825.69;;;2.62;72.80
9281;BME280;4679;47.966;7.958;2023-02-12T18:57:32;98833.03;;;2.58;72.92
9281;BME280;4679;47.966;7.958;2023-02-12T18:59:34;98820.09;;;2.57;72.80
9281;BME280;4679;47.966;7.958;2023-02-12T19:01:36;98828.69;;;2.49;73.11
9281;BME280;4679;47.966;7.958;2023-02-12T19:03:38;98816.50;;;2.40;73.74
9281;BME280;4679;47.966;7.958;2023-02-12T19:05:40;98822.84;;;2.37;73.84
9281;BME280;4679;47.966;7.958;2023-02-12T19:07:41;98826.34;;;2.46;73.67
9281;BME280;4679;47.966;7.958;2023-02-12T19:09:43;98816.56;;;2.48;73.38
9281;BME280;4679;47.966;7.958;2023-02-12T19:11:47;98822.47;;;2.50;73.58
9281;BME280;4679;47.966;7.958;2023-02-12T19:13:49;98823.75;;;2.46;73.73
9281;BME280;4679;47.966;7.958;2023-02-12T19:15:51;98822.72;;;2.39;73.61
9281;BME280;4679;47.966;7.958;2023-02-12T19:17:53;98813.94;;;2.30;74.48
9281;BME280;4679;47.966;7.958;2023-02-12T19:19:55;98809.53;;;2.31;74.42
9281;BME280;4679;47.966;7.958;2023-02-12T19:21:56;98813.78;;;2.32;74.45
9281;BME280;4679;47.966;7.958;2023-02-12T19:23:59;98820.53;;;2.34;74.51
9281;BME280;4679;47.966;7.958;2023-02-12T19:26:03;98818.66;;;2.27;74.30
9281;BME280;4679;47.966;7.958;2023-02-12T19:28:06;98825.03;;;2.24;73.89
9281;BME280;4679;47.966;7.958;2023-02-12T19:30:08;98819.50;;;2.27;74.30
9281;BME280;4679;47.966;7.958;2023-02-12T19:32:10;98819.78;;;2.24;74.83
9281;BME280;4679;47.966;7.958;2023-02-12T19:34:14;98817.47;;;2.21;74.98